createdAt,value
2023-01-08T00:01:15.577Z,2.97
2023-01-08T00:03:43.107Z,3.20
2023-01-08T00:06:15.380Z,3.13
2023-01-08T00:08:42.936Z,2.90
2023-01-08T00:11:10.692Z,2.87
2023-01-08T00:13:38.537Z,3.03
2023-01-08T00:16:07.297Z,3.40
2023-01-08T00:18:34.903Z,3.17
2023-01-08T00:21:02.728Z,3.10
2023-01-08T00:23:30.128Z,3.00
2023-01-08T00:25:57.459Z,3.27
2023-01-08T00:28:24.855Z,3.70
2023-01-08T00:30:52.294Z,2.97
2023-01-08T00:33:19.682Z,3.03
2023-01-08T00:35:47.077Z,3.10
2023-01-08T00:38:14.467Z,2.80
2023-01-08T00:40:41.985Z,3.00
2023-01-08T00:43:09.528Z,2.90
2023-01-08T00:45:36.997Z,3.23
2023-01-08T00:48:04.396Z,3.27
2023-01-08T00:50:31.822Z,2.93
2023-01-08T00:52:59.163Z,2.63
2023-01-08T00:55:26.528Z,3.17
2023-01-08T00:57:53.852Z,2.67
2023-01-08T01:00:21.171Z,2.90
2023-01-08T01:02:48.509Z,3.07
2023-01-08T01:05:17.359Z,3.17
2023-01-08T01:07:45.337Z,3.37
2023-01-08T01:10:14.138Z,3.27
2023-01-08T01:12:41.878Z,3.20
2023-01-08T01:15:10.534Z,3.13
2023-01-08T01:17:41.856Z,2.93
2023-01-08T01:20:10.127Z,2.80
2023-01-08T01:22:37.647Z,3.00
2023-01-08T01:25:05.286Z,2.80
2023-01-08T01:27:32.636Z,2.67
2023-01-08T01:30:00.037Z,3.00
2023-01-08T01:32:27.499Z,3.23
2023-01-08T01:34:54.856Z,3.60
2023-01-08T01:37:22.211Z,3.27
2023-01-08T01:39:49.633Z,3.40
2023-01-08T01:42:36.554Z,2.93
2023-01-08T01:45:23.411Z,2.83
2023-01-08T01:47:56.316Z,2.77
2023-01-08T01:50:30.345Z,2.73
2023-01-08T01:53:12.596Z,3.07
2023-01-08T01:55:41.369Z,2.90
2023-01-08T01:58:12.435Z,3.23
2023-01-08T02:00:39.907Z,2.57
2023-01-08T02:03:08.271Z,3.17
2023-01-08T02:05:41.279Z,2.80
2023-01-08T02:08:11.806Z,2.73
2023-01-08T02:10:49.142Z,2.80
2023-01-08T02:13:32.318Z,3.00
2023-01-08T02:16:05.994Z,2.83
2023-01-08T02:18:38.530Z,2.83
2023-01-08T02:21:09.921Z,2.37
2023-01-08T02:23:37.311Z,2.90
2023-01-08T02:26:25.022Z,2.43
2023-01-08T02:28:55.777Z,2.33
2023-01-08T02:31:24.209Z,2.53
2023-01-08T02:33:51.582Z,2.70
2023-01-08T02:36:29.031Z,2.60
2023-01-08T02:39:08.422Z,2.23
2023-01-08T02:41:46.381Z,2.63
2023-01-08T02:44:15.618Z,2.50
2023-01-08T02:46:43.044Z,2.30
2023-01-08T02:49:13.328Z,2.30
2023-01-08T02:51:43.863Z,2.67
2023-01-08T02:54:18.412Z,2.43
2023-01-08T02:56:47.811Z,2.37
2023-01-08T02:59:16.294Z,2.50
2023-01-08T03:01:44.053Z,2.10
2023-01-08T03:04:15.543Z,2.33
2023-01-08T03:06:43.356Z,2.70
2023-01-08T03:09:11.060Z,2.80
2023-01-08T03:11:42.586Z,2.43
2023-01-08T03:14:12.726Z,2.37
2023-01-08T03:16:43.250Z,2.30
2023-01-08T03:19:13.834Z,2.20
2023-01-08T03:21:42.063Z,2.80
2023-01-08T03:24:10.509Z,2.10
2023-01-08T03:26:38.533Z,2.13
2023-01-08T03:29:06.733Z,2.53
2023-01-08T03:31:35.908Z,2.00
2023-01-08T03:34:04.530Z,2.30
2023-01-08T03:36:34.120Z,2.70
2023-01-08T03:39:04.035Z,2.30
2023-01-08T03:41:33.137Z,2.47
2023-01-08T03:44:00.537Z,2.50
2023-01-08T03:46:33.236Z,2.40
2023-01-08T03:49:01.091Z,2.10
2023-01-08T03:51:28.415Z,2.10
2023-01-08T03:53:58.899Z,2.17
2023-01-08T03:56:26.257Z,1.67
2023-01-08T03:58:53.595Z,2.37
2023-01-08T04:01:20.982Z,2.03
2023-01-08T04:03:48.343Z,2.20
2023-01-08T04:06:15.708Z,2.30
2023-01-08T04:08:43.067Z,2.73
2023-01-08T04:11:10.402Z,2.17
2023-01-08T04:13:37.849Z,2.77
2023-01-08T04:16:06.053Z,2.10
2023-01-08T04:18:33.390Z,2.37
2023-01-08T04:21:01.020Z,2.27
2023-01-08T04:23:28.476Z,2.17
2023-01-08T04:25:55.793Z,2.20
2023-01-08T04:28:24.721Z,2.60
2023-01-08T04:30:52.240Z,1.70
2023-01-08T04:33:19.668Z,2.20
2023-01-08T04:35:47.002Z,1.97
2023-01-08T04:38:14.456Z,2.10
2023-01-08T04:40:41.794Z,2.10
2023-01-08T04:43:09.140Z,2.20
2023-01-08T04:45:36.481Z,2.00
2023-01-08T04:48:03.829Z,1.80
2023-01-08T04:50:31.150Z,2.10
2023-01-08T04:53:00.227Z,1.87
2023-01-08T04:55:27.648Z,3.30
2023-01-08T04:57:54.956Z,2.27
2023-01-08T05:00:22.367Z,2.30
2023-01-08T05:02:49.779Z,2.23
2023-01-08T05:05:17.202Z,2.17
2023-01-08T05:07:44.599Z,2.00
2023-01-08T05:10:12.002Z,1.90
2023-01-08T05:12:39.305Z,2.70
2023-01-08T05:15:06.856Z,2.10
2023-01-08T05:17:34.216Z,2.23
2023-01-08T05:20:01.595Z,1.93
2023-01-08T05:22:28.952Z,2.60
2023-01-08T05:24:56.271Z,1.90
2023-01-08T05:27:23.634Z,1.93
2023-01-08T05:29:51.810Z,1.77
2023-01-08T05:32:19.601Z,1.97
2023-01-08T05:34:47.147Z,1.73
2023-01-08T05:37:14.457Z,2.00
2023-01-08T05:39:41.835Z,1.80
2023-01-08T05:42:09.141Z,1.43
2023-01-08T05:44:36.452Z,1.87
2023-01-08T05:47:03.920Z,1.67
2023-01-08T05:49:31.242Z,2.00
2023-01-08T05:51:58.537Z,2.10
2023-01-08T05:54:25.885Z,1.87
2023-01-08T05:56:53.198Z,1.60
2023-01-08T05:59:20.535Z,1.97
2023-01-08T06:01:47.945Z,2.00
2023-01-08T06:04:15.476Z,1.33
2023-01-08T06:06:42.830Z,2.03
2023-01-08T06:09:10.232Z,1.73
2023-01-08T06:11:37.691Z,1.83
2023-01-08T06:14:05.110Z,1.57
2023-01-08T06:16:32.430Z,1.90
2023-01-08T06:18:59.824Z,1.77
2023-01-08T06:21:27.280Z,1.97
2023-01-08T06:23:54.617Z,2.03
2023-01-08T06:26:21.926Z,1.70
2023-01-08T06:28:49.306Z,1.90
2023-01-08T06:31:16.824Z,1.63
2023-01-08T06:33:47.023Z,1.83
2023-01-08T06:36:14.317Z,1.77
2023-01-08T06:38:41.659Z,1.87
2023-01-08T06:41:10.744Z,1.50
2023-01-08T06:43:38.712Z,1.80
2023-01-08T06:46:06.553Z,1.67
2023-01-08T06:48:33.950Z,1.77
2023-01-08T06:51:02.145Z,1.90
2023-01-08T06:53:29.560Z,1.60
2023-01-08T06:55:58.602Z,3.10
2023-01-08T06:58:27.202Z,1.50
2023-01-08T07:00:54.590Z,1.63
2023-01-08T07:03:21.993Z,1.80
2023-01-08T07:05:50.817Z,2.07
2023-01-08T07:08:18.731Z,2.10
2023-01-08T07:10:46.135Z,1.70
2023-01-08T07:13:13.695Z,1.60
2023-01-08T07:15:41.888Z,1.37
2023-01-08T07:18:10.151Z,1.73
2023-01-08T07:20:37.768Z,1.40
2023-01-08T07:23:06.355Z,1.60
2023-01-08T07:25:33.772Z,1.53
2023-01-08T07:28:01.996Z,1.67
2023-01-08T07:30:30.753Z,1.67
2023-01-08T07:32:59.574Z,1.60
2023-01-08T07:35:27.357Z,2.00
2023-01-08T07:37:54.775Z,2.00
2023-01-08T07:40:22.184Z,1.70
2023-01-08T07:42:49.537Z,1.87
2023-01-08T07:45:16.940Z,1.43
2023-01-08T07:47:44.312Z,1.37
2023-01-08T07:50:11.761Z,1.60
2023-01-08T07:52:39.178Z,1.87
2023-01-08T07:55:06.600Z,1.17
2023-01-08T07:57:33.954Z,1.27
2023-01-08T08:00:01.376Z,1.13
2023-01-08T08:02:29.058Z,1.23
2023-01-08T08:04:56.644Z,1.37
2023-01-08T08:07:24.027Z,1.30
2023-01-08T08:09:51.565Z,1.40
2023-01-08T08:12:18.936Z,1.40
2023-01-08T08:14:46.292Z,1.47
2023-01-08T08:17:13.657Z,1.37
2023-01-08T08:19:43.784Z,1.37
2023-01-08T08:22:11.148Z,1.30
2023-01-08T08:24:38.523Z,1.53
2023-01-08T08:27:05.864Z,1.53
2023-01-08T08:29:34.097Z,1.83
2023-01-08T08:32:01.412Z,1.40
2023-01-08T08:34:28.832Z,1.30
2023-01-08T08:36:56.201Z,1.47
2023-01-08T08:39:23.611Z,1.17
2023-01-08T08:41:51.009Z,1.17
2023-01-08T08:44:18.440Z,1.53
2023-01-08T08:46:45.900Z,1.17
2023-01-08T08:49:13.270Z,1.15
2023-01-08T08:51:40.591Z,1.10
2023-01-08T08:54:07.958Z,1.17
2023-01-08T08:56:35.311Z,1.20
2023-01-08T08:59:02.739Z,0.93
2023-01-08T09:01:30.569Z,1.00
2023-01-08T09:03:57.966Z,0.97
2023-01-08T09:06:27.607Z,1.00
2023-01-08T09:08:58.091Z,1.37
2023-01-08T09:11:25.425Z,1.17
2023-01-08T09:13:52.732Z,1.07
2023-01-08T09:16:20.145Z,1.20
2023-01-08T09:18:49.099Z,0.90
2023-01-08T09:21:16.679Z,1.10
2023-01-08T09:23:44.144Z,1.10
2023-01-08T09:26:11.573Z,0.83
2023-01-08T09:28:39.271Z,0.90
2023-01-08T09:31:07.058Z,0.83
2023-01-08T09:33:34.576Z,1.00
2023-01-08T09:36:01.924Z,0.70
2023-01-08T09:38:30.232Z,0.60
2023-01-08T09:41:01.894Z,0.77
2023-01-08T09:43:30.742Z,0.87
2023-01-08T09:46:00.430Z,0.97
2023-01-08T09:48:30.288Z,0.70
2023-01-08T09:50:57.896Z,0.70
2023-01-08T09:53:25.345Z,0.80
2023-01-08T09:56:09.135Z,1.17
2023-01-08T09:58:39.717Z,0.83
2023-01-08T10:01:07.790Z,1.20
2023-01-08T10:03:40.548Z,0.90
2023-01-08T10:06:11.952Z,1.00
2023-01-08T10:08:39.710Z,1.10
2023-01-08T10:11:07.855Z,1.17
2023-01-08T10:13:37.444Z,0.93
2023-01-08T10:16:09.219Z,1.13
2023-01-08T10:18:37.028Z,1.50
2023-01-08T10:21:04.569Z,1.40
2023-01-08T10:23:31.937Z,1.33
2023-01-08T10:25:59.474Z,1.20
2023-01-08T10:28:28.798Z,1.10
2023-01-08T10:31:00.749Z,1.50
2023-01-08T10:33:32.623Z,1.90
2023-01-08T10:36:02.466Z,1.33
2023-01-08T10:38:34.224Z,1.03
2023-01-08T10:41:04.199Z,1.00
2023-01-08T10:43:36.721Z,1.17
2023-01-08T10:46:18.389Z,1.10
2023-01-08T10:48:48.150Z,1.00
2023-01-08T10:51:20.238Z,0.80
2023-01-08T10:53:47.825Z,1.37
2023-01-08T10:56:23.269Z,1.43
2023-01-08T10:58:51.445Z,1.67
2023-01-08T11:01:22.987Z,1.00
2023-01-08T11:03:51.627Z,1.10
2023-01-08T11:06:23.673Z,1.00
2023-01-08T11:08:55.670Z,0.97
2023-01-08T11:11:23.754Z,1.90
2023-01-08T11:13:59.377Z,1.27
2023-01-08T11:16:38.250Z,1.50
2023-01-08T11:19:06.431Z,1.53
2023-01-08T11:21:36.223Z,1.40
2023-01-08T11:24:03.677Z,1.37
2023-01-08T11:26:31.935Z,1.80
2023-01-08T11:29:14.288Z,1.83
2023-01-08T11:31:53.989Z,1.27
2023-01-08T11:34:40.335Z,2.50
2023-01-08T11:37:10.930Z,2.30
2023-01-08T11:39:38.963Z,1.90
2023-01-08T11:42:21.710Z,2.10
2023-01-08T11:44:58.223Z,1.60
2023-01-08T11:47:44.209Z,1.60
2023-01-08T11:50:21.814Z,1.67
2023-01-08T11:52:56.485Z,1.80
2023-01-08T11:55:24.373Z,2.03
2023-01-08T11:58:10.902Z,2.60
2023-01-08T12:00:47.633Z,2.23
2023-01-08T12:03:21.132Z,1.40
2023-01-08T12:05:48.693Z,1.80
2023-01-08T12:08:28.040Z,1.63
2023-01-08T12:11:00.348Z,1.73
2023-01-08T12:13:47.315Z,1.23
2023-01-08T12:16:33.817Z,1.87
2023-01-08T12:19:08.721Z,1.57
2023-01-08T12:21:52.284Z,2.03
2023-01-08T12:24:19.718Z,1.67
2023-01-08T12:26:53.655Z,2.10
2023-01-08T12:29:33.817Z,1.70
2023-01-08T12:32:19.921Z,2.47
2023-01-08T12:34:50.064Z,2.30
2023-01-08T12:37:36.521Z,1.40
2023-01-08T12:40:08.643Z,2.40
2023-01-08T12:42:38.465Z,2.60
2023-01-08T12:45:07.424Z,1.70
2023-01-08T12:47:37.957Z,1.40
2023-01-08T12:50:21.538Z,1.70
2023-01-08T12:52:53.619Z,1.73
2023-01-08T12:55:31.339Z,1.90
2023-01-08T12:58:06.474Z,1.57
2023-01-08T13:00:40.705Z,1.60
2023-01-08T13:03:14.989Z,2.47
2023-01-08T13:05:43.623Z,2.00
2023-01-08T13:08:26.005Z,1.80
2023-01-08T13:10:56.787Z,2.00
2023-01-08T13:13:34.846Z,1.40
2023-01-08T13:16:14.561Z,1.87
2023-01-08T13:18:42.666Z,1.70
2023-01-08T13:21:12.100Z,1.90
2023-01-08T13:23:39.506Z,1.80
2023-01-08T13:26:07.635Z,2.33
2023-01-08T13:28:38.023Z,1.63
2023-01-08T13:31:10.514Z,1.77
2023-01-08T13:33:39.844Z,1.63
2023-01-08T13:36:10.179Z,1.60
2023-01-08T13:38:37.530Z,1.57
2023-01-08T13:45:17.676Z,1.40
2023-01-08T13:54:40.682Z,1.50
2023-01-08T13:57:15.960Z,1.30
2023-01-08T14:22:28.444Z,1.10
2023-01-08T14:25:04.191Z,1.40
2023-01-08T14:27:39.939Z,1.10
2023-01-08T14:38:15.917Z,1.10
2023-01-08T14:40:48.574Z,1.30
2023-01-08T14:47:35.976Z,1.33
2023-01-08T14:50:06.677Z,0.87
2023-01-08T14:52:37.919Z,1.07
2023-01-08T15:02:07.587Z,1.43
2023-01-08T15:04:39.615Z,0.90
2023-01-08T15:07:17.529Z,1.23
2023-01-08T15:10:11.282Z,0.90
2023-01-08T15:12:41.906Z,0.97
2023-01-08T15:15:13.357Z,1.00
2023-01-08T15:17:41.393Z,0.80
2023-01-08T15:24:26.116Z,0.60
2023-01-08T15:26:53.689Z,0.70
2023-01-08T15:29:26.205Z,0.90
2023-01-08T15:31:53.719Z,1.03
2023-01-08T15:34:22.110Z,1.37
2023-01-08T15:36:50.471Z,1.40
2023-01-08T15:39:18.747Z,1.27
2023-01-08T15:42:09.207Z,1.60
2023-01-08T15:44:39.260Z,1.30
2023-01-08T15:47:10.361Z,1.50
2023-01-08T15:49:38.063Z,1.63
2023-01-08T15:52:37.729Z,1.70
2023-01-08T15:59:45.821Z,1.57
2023-01-08T16:03:33.275Z,4.97
2023-01-08T16:06:19.960Z,1.30
2023-01-08T16:08:47.629Z,1.33
2023-01-08T16:11:15.018Z,1.00
2023-01-08T16:13:42.312Z,1.40
2023-01-08T16:16:14.031Z,1.33
2023-01-08T16:18:41.680Z,1.50
2023-01-08T16:21:09.605Z,1.33
2023-01-08T16:23:40.558Z,1.20
2023-01-08T16:26:09.114Z,1.50
2023-01-08T16:28:36.819Z,1.30
2023-01-08T16:31:04.528Z,0.90
2023-01-08T16:33:32.089Z,0.90
2023-01-08T16:36:00.399Z,1.20
2023-01-08T16:38:27.957Z,1.30
2023-01-08T16:40:59.458Z,1.00
2023-01-08T16:43:27.630Z,1.43
2023-01-08T16:45:55.362Z,1.00
2023-01-08T16:48:23.434Z,0.87
2023-01-08T16:50:50.829Z,0.70
2023-01-08T16:53:18.902Z,0.87
2023-01-08T16:55:46.252Z,1.00
2023-01-08T16:58:13.652Z,0.93
2023-01-08T17:00:40.978Z,1.20
2023-01-08T17:03:08.354Z,1.20
2023-01-08T17:05:37.222Z,1.57
2023-01-08T17:08:04.627Z,1.43
2023-01-08T17:10:32.294Z,1.30
2023-01-08T17:12:59.614Z,1.20
2023-01-08T17:15:26.998Z,1.00
2023-01-08T17:17:54.347Z,1.13
2023-01-08T17:20:21.713Z,1.57
2023-01-08T17:22:49.023Z,1.47
2023-01-08T17:25:16.404Z,1.17
2023-01-08T17:27:43.741Z,0.90
2023-01-08T17:30:12.074Z,1.00
2023-01-08T17:32:39.681Z,1.33
2023-01-08T17:35:07.605Z,1.00
2023-01-08T17:37:35.294Z,1.13
2023-01-08T17:40:02.643Z,1.10
2023-01-08T17:42:30.379Z,1.33
2023-01-08T17:45:01.155Z,1.53
2023-01-08T17:47:28.474Z,1.50
2023-01-08T17:49:56.653Z,1.50
2023-01-08T17:52:24.904Z,1.43
2023-01-08T17:54:52.818Z,1.50
2023-01-08T17:57:21.005Z,1.23
2023-01-08T17:59:48.654Z,1.53
2023-01-08T18:02:16.927Z,1.87
2023-01-08T18:04:45.588Z,2.87
2023-01-08T18:07:13.222Z,3.27
2023-01-08T18:09:40.725Z,1.60
2023-01-08T18:12:08.432Z,1.53
2023-01-08T18:14:37.596Z,2.00
2023-01-08T18:17:05.160Z,1.80
2023-01-08T18:19:32.471Z,1.43
2023-01-08T18:22:00.780Z,1.40
2023-01-08T18:24:28.207Z,1.37
2023-01-08T18:26:55.716Z,1.40
2023-01-08T18:29:23.004Z,1.30
2023-01-08T18:31:50.507Z,1.67
2023-01-08T18:34:17.857Z,1.60
2023-01-08T18:36:45.306Z,1.77
2023-01-08T18:39:13.292Z,1.57
2023-01-08T18:41:59.229Z,1.30
2023-01-08T18:44:26.655Z,1.27
2023-01-08T18:46:54.185Z,1.23
2023-01-08T18:49:23.422Z,1.17
2023-01-08T18:51:51.028Z,1.27
2023-01-08T18:54:18.409Z,1.27
2023-01-08T18:56:46.555Z,1.17
2023-01-08T18:59:13.879Z,1.57
2023-01-08T19:01:41.559Z,1.63
2023-01-08T19:04:11.255Z,1.30
2023-01-08T19:06:38.538Z,1.63
2023-01-08T19:09:05.845Z,1.23
2023-01-08T19:11:33.158Z,1.80
2023-01-08T19:14:00.572Z,4.13
2023-01-08T19:16:27.922Z,3.63
2023-01-08T19:18:55.334Z,1.23
2023-01-08T19:21:22.725Z,1.33
2023-01-08T19:23:50.432Z,2.13
2023-01-08T19:26:18.264Z,1.40
2023-01-08T19:28:45.981Z,1.60
2023-01-08T19:31:14.414Z,1.03
2023-01-08T19:33:41.845Z,1.23
2023-01-08T19:36:12.652Z,1.27
2023-01-08T19:38:41.079Z,1.23
2023-01-08T19:41:28.961Z,1.17
2023-01-08T19:43:56.366Z,1.23
2023-01-08T19:46:23.979Z,1.60
2023-01-08T19:48:51.301Z,2.03
2023-01-08T19:51:18.639Z,1.83
2023-01-08T19:53:46.014Z,1.77
2023-01-08T19:56:14.156Z,1.40
2023-01-08T19:58:41.792Z,1.20
2023-01-08T20:01:14.457Z,1.10
2023-01-08T20:03:42.277Z,1.10
2023-01-08T20:06:11.083Z,1.37
2023-01-08T20:08:38.834Z,1.30
2023-01-08T20:11:08.167Z,1.40
2023-01-08T20:13:36.606Z,1.10
2023-01-08T20:16:05.280Z,1.40
2023-01-08T20:18:32.858Z,1.60
2023-01-08T20:21:04.401Z,1.67
2023-01-08T20:23:31.786Z,1.57
2023-01-08T20:26:03.547Z,1.47
2023-01-08T20:28:30.892Z,1.50
2023-01-08T20:31:04.049Z,1.50
2023-01-08T20:33:31.359Z,1.97
2023-01-08T20:35:58.656Z,1.80
2023-01-08T20:38:25.954Z,1.73
2023-01-08T20:40:53.337Z,1.63
2023-01-08T20:43:20.738Z,1.30
2023-01-08T20:45:48.131Z,1.60
2023-01-08T20:48:15.561Z,2.67
2023-01-08T20:50:46.801Z,2.63
2023-01-08T20:53:14.608Z,1.50
2023-01-08T20:55:43.657Z,1.43
2023-01-08T20:58:11.099Z,1.77
2023-01-08T21:00:38.461Z,1.40
2023-01-08T21:03:06.020Z,1.93
2023-01-08T21:05:36.164Z,1.40
2023-01-08T21:08:04.172Z,1.50
2023-01-08T21:10:31.648Z,1.73
2023-01-08T21:12:59.060Z,1.40
2023-01-08T21:15:26.584Z,3.50
2023-01-08T21:17:55.071Z,1.53
2023-01-08T21:20:22.409Z,2.10
2023-01-08T21:22:49.764Z,1.80
2023-01-08T21:25:18.982Z,1.60
2023-01-08T21:27:46.373Z,1.53
2023-01-08T21:30:13.751Z,1.70
2023-01-08T21:32:41.133Z,1.83
2023-01-08T21:35:08.605Z,1.80
2023-01-08T21:37:38.501Z,2.20
2023-01-08T21:40:06.246Z,1.47
2023-01-08T21:42:52.087Z,1.53
2023-01-08T21:45:25.444Z,1.70
2023-01-08T21:47:53.142Z,1.63
2023-01-08T21:50:20.584Z,2.00
2023-01-08T21:53:06.361Z,1.70
2023-01-08T21:55:34.897Z,1.47
2023-01-08T21:58:02.224Z,1.67
2023-01-08T22:00:31.237Z,2.00
2023-01-08T22:02:59.169Z,1.80
2023-01-08T22:05:29.936Z,1.83
2023-01-08T22:07:57.329Z,1.93
2023-01-08T22:10:24.644Z,1.93
2023-01-08T22:12:52.007Z,1.83
2023-01-08T22:15:20.387Z,2.07
2023-01-08T22:17:47.970Z,2.13
2023-01-08T22:20:15.395Z,1.50
2023-01-08T22:22:46.993Z,1.60
2023-01-08T22:25:14.482Z,2.07
2023-01-08T22:27:42.163Z,1.90
2023-01-08T22:30:09.932Z,2.13
2023-01-08T22:32:37.346Z,2.40
2023-01-08T22:35:07.711Z,2.10
2023-01-08T22:37:36.661Z,1.90
2023-01-08T22:40:04.899Z,1.63
2023-01-08T22:42:32.150Z,2.40
2023-01-08T22:44:59.401Z,2.07
2023-01-08T22:47:26.708Z,2.00
2023-01-08T22:49:53.966Z,2.57
2023-01-08T22:52:21.239Z,2.27
2023-01-08T22:54:49.258Z,2.57
2023-01-08T22:57:16.509Z,2.23
2023-01-08T22:59:43.780Z,4.27
2023-01-08T23:02:11.027Z,6.40
2023-01-08T23:04:42.943Z,2.90
2023-01-08T23:07:26.169Z,2.27
2023-01-08T23:09:57.412Z,2.70
2023-01-08T23:12:31.072Z,2.57
2023-01-08T23:15:13.438Z,2.40
2023-01-08T23:18:08.100Z,3.63
2023-01-08T23:20:36.994Z,3.63
2023-01-08T23:23:13.973Z,2.53
2023-01-08T23:25:54.141Z,2.70
2023-01-08T23:28:39.303Z,2.60
2023-01-08T23:31:15.518Z,2.57
2023-01-08T23:33:44.839Z,3.63
2023-01-08T23:36:18.061Z,3.13
2023-01-08T23:38:46.176Z,2.67
2023-01-08T23:41:13.686Z,3.03
2023-01-08T23:43:41.005Z,3.00
2023-01-08T23:46:08.356Z,2.77
2023-01-08T23:48:36.130Z,2.60
2023-01-08T23:51:03.400Z,2.83
2023-01-08T23:53:30.735Z,3.07
2023-01-08T23:55:58.001Z,3.03
2023-01-08T23:58:25.562Z,2.70
